createdAt,value
2017-08-10T00:00:53.780Z,16.30
2017-08-10T00:03:21.233Z,16.20
2017-08-10T00:05:48.688Z,16.30
2017-08-10T00:08:16.152Z,16.20
2017-08-10T00:10:43.601Z,16.10
2017-08-10T00:13:11.052Z,16.20
2017-08-10T00:15:38.516Z,16.20
2017-08-10T00:18:05.963Z,16.20
2017-08-10T00:20:33.404Z,16.20
2017-08-10T00:23:01.104Z,16.20
2017-08-10T00:25:28.553Z,16.10
2017-08-10T00:27:56.002Z,16.10
2017-08-10T00:30:23.453Z,16.10
2017-08-10T00:32:50.900Z,15.90
2017-08-10T00:35:18.385Z,16.00
2017-08-10T00:37:45.833Z,15.80
2017-08-10T00:40:13.279Z,15.80
2017-08-10T00:42:41.056Z,15.80
2017-08-10T00:45:08.508Z,16.00
2017-08-10T00:47:35.960Z,15.90
2017-08-10T00:50:03.454Z,15.80
2017-08-10T00:52:30.906Z,15.80
2017-08-10T00:54:58.743Z,15.70
2017-08-10T00:57:26.216Z,15.70
2017-08-10T00:59:53.664Z,15.40
2017-08-10T01:02:21.248Z,14.90
2017-08-10T01:04:48.720Z,14.90
2017-08-10T01:07:16.164Z,14.80
2017-08-10T01:09:43.613Z,14.70
2017-08-10T01:12:11.463Z,14.70
2017-08-10T01:14:39.305Z,14.40
2017-08-10T01:17:06.756Z,14.40
2017-08-10T01:19:34.224Z,14.20
2017-08-10T01:22:01.668Z,14.20
2017-08-10T01:24:29.117Z,14.30
2017-08-10T01:26:56.596Z,14.30
2017-08-10T01:29:24.040Z,14.30
2017-08-10T01:31:51.488Z,14.40
2017-08-10T01:34:18.972Z,14.60
2017-08-10T01:36:46.812Z,14.80
2017-08-10T01:39:14.263Z,14.80
2017-08-10T01:41:41.728Z,15.10
2017-08-10T01:44:09.172Z,15.20
2017-08-10T01:46:36.625Z,15.30
2017-08-10T01:49:04.489Z,15.30
2017-08-10T01:51:31.946Z,15.30
2017-08-10T01:53:59.393Z,15.30
2017-08-10T01:56:27.060Z,15.40
2017-08-10T01:58:54.503Z,15.30
2017-08-10T02:01:21.961Z,15.30
2017-08-10T02:03:49.737Z,15.30
2017-08-10T02:06:17.186Z,15.30
2017-08-10T02:08:44.629Z,15.40
2017-08-10T02:11:12.364Z,15.50
2017-08-10T02:13:39.808Z,15.40
2017-08-10T02:16:07.260Z,15.40
2017-08-10T02:18:34.709Z,15.40
2017-08-10T02:21:02.182Z,15.20
2017-08-10T02:23:29.624Z,15.10
2017-08-10T02:25:57.077Z,15.00
2017-08-10T02:30:58.946Z,15.20
2017-08-10T02:33:26.806Z,15.30
2017-08-10T02:35:54.698Z,15.30
2017-08-10T02:38:22.167Z,15.30
2017-08-10T02:40:49.634Z,15.30
2017-08-10T02:43:17.127Z,15.30
2017-08-10T02:45:44.587Z,15.30
2017-08-10T02:48:12.045Z,15.30
2017-08-10T02:50:40.021Z,15.20
2017-08-10T02:53:07.878Z,15.20
2017-08-10T02:55:35.339Z,15.20
2017-08-10T02:58:03.595Z,15.10
2017-08-10T03:00:31.063Z,15.10
2017-08-10T03:02:58.527Z,15.10
2017-08-10T03:05:25.998Z,15.10
2017-08-10T03:07:53.460Z,15.00
2017-08-10T03:10:20.940Z,15.10
2017-08-10T03:12:48.411Z,15.10
2017-08-10T03:15:15.870Z,15.10
2017-08-10T03:17:43.356Z,15.10
2017-08-10T03:20:11.210Z,15.10
2017-08-10T03:22:39.067Z,15.20
2017-08-10T03:25:06.831Z,15.20
2017-08-10T03:27:34.300Z,15.20
2017-08-10T03:30:02.156Z,15.20
2017-08-10T03:32:30.308Z,15.30
2017-08-10T03:34:57.767Z,15.30
2017-08-10T03:37:25.230Z,15.30
2017-08-10T03:39:52.732Z,15.20
2017-08-10T03:42:20.197Z,15.10
2017-08-10T03:44:47.656Z,15.00
2017-08-10T03:47:15.155Z,14.80
2017-08-10T03:49:43.021Z,14.70
2017-08-10T03:52:10.883Z,14.70
2017-08-10T03:54:38.351Z,14.70
2017-08-10T03:57:06.219Z,14.30
2017-08-10T03:59:34.378Z,14.10
2017-08-10T04:02:02.244Z,14.10
2017-08-10T04:04:29.699Z,14.10
2017-08-10T04:06:57.179Z,14.10
2017-08-10T04:09:24.671Z,14.40
2017-08-10T04:11:52.135Z,14.40
2017-08-10T04:14:19.619Z,14.30
2017-08-10T04:16:47.083Z,14.10
2017-08-10T04:19:14.947Z,14.30
2017-08-10T04:21:43.075Z,14.30
2017-08-10T04:24:10.547Z,14.40
2017-08-10T04:26:38.006Z,14.40
2017-08-10T04:29:05.871Z,14.40
2017-08-10T04:31:33.370Z,14.40
2017-08-10T04:34:00.836Z,14.70
2017-08-10T04:36:28.299Z,14.90
2017-08-10T04:38:55.793Z,14.90
2017-08-10T04:41:23.252Z,15.00
2017-08-10T04:43:50.708Z,15.00
2017-08-10T04:46:18.203Z,15.00
2017-08-10T04:48:45.677Z,15.30
2017-08-10T04:51:13.146Z,15.60
2017-08-10T04:53:40.907Z,15.50
2017-08-10T04:56:08.372Z,15.70
2017-08-10T04:58:35.830Z,15.50
2017-08-10T05:01:03.476Z,15.50
2017-08-10T05:03:30.939Z,15.60
2017-08-10T05:05:58.410Z,15.50
2017-08-10T05:08:25.894Z,15.70
2017-08-10T05:10:53.761Z,15.60
2017-08-10T05:13:21.623Z,14.90
2017-08-10T05:15:49.482Z,15.10
2017-08-10T05:18:16.943Z,15.10
2017-08-10T05:20:44.835Z,15.90
2017-08-10T05:23:12.305Z,15.90
2017-08-10T05:25:39.759Z,15.90
2017-08-10T05:28:07.227Z,15.80
2017-08-10T05:30:34.688Z,15.50
2017-08-10T05:33:02.260Z,15.30
2017-08-10T05:35:29.723Z,15.70
2017-08-10T05:37:57.196Z,16.10
2017-08-10T05:40:25.255Z,16.40
2017-08-10T05:42:52.719Z,16.50
2017-08-10T05:45:20.575Z,16.60
2017-08-10T05:47:48.447Z,16.60
2017-08-10T05:50:15.903Z,16.60
2017-08-10T05:52:43.766Z,16.50
2017-08-10T05:55:11.633Z,16.70
2017-08-10T05:57:39.090Z,16.70
2017-08-10T06:00:07.233Z,16.80
2017-08-10T06:02:34.686Z,16.80
2017-08-10T06:05:02.168Z,16.90
2017-08-10T06:07:29.783Z,17.10
2017-08-10T06:09:57.242Z,17.10
2017-08-10T06:12:24.716Z,17.00
2017-08-10T06:14:52.600Z,17.30
2017-08-10T06:17:20.067Z,17.40
2017-08-10T06:19:47.944Z,17.60
2017-08-10T06:22:15.455Z,17.60
2017-08-10T06:24:42.949Z,17.50
2017-08-10T06:27:10.428Z,17.60
2017-08-10T06:29:37.907Z,17.70
2017-08-10T06:32:05.378Z,17.70
2017-08-10T06:34:32.838Z,17.80
2017-08-10T06:37:00.607Z,17.90
2017-08-10T06:39:28.095Z,18.10
2017-08-10T06:41:55.567Z,18.50
2017-08-10T06:44:23.391Z,18.70
2017-08-10T06:46:50.854Z,18.90
2017-08-10T06:49:18.723Z,19.00
2017-08-10T06:51:46.203Z,18.90
2017-08-10T06:54:13.672Z,18.70
2017-08-10T06:56:41.137Z,18.50
2017-08-10T06:59:08.844Z,18.70
2017-08-10T07:01:36.703Z,18.60
2017-08-10T07:04:04.173Z,18.60
2017-08-10T07:06:32.326Z,18.60
2017-08-10T07:08:59.800Z,18.60
2017-08-10T07:11:27.257Z,18.90
2017-08-10T07:13:54.765Z,19.00
2017-08-10T07:16:22.236Z,19.20
2017-08-10T07:18:49.704Z,19.60
2017-08-10T07:21:17.215Z,19.80
2017-08-10T07:23:44.676Z,20.10
2017-08-10T07:26:12.131Z,19.90
2017-08-10T07:28:39.612Z,19.90
2017-08-10T07:31:07.072Z,19.80
2017-08-10T07:33:34.523Z,19.90
2017-08-10T07:36:01.992Z,19.90
2017-08-10T07:38:29.447Z,19.80
2017-08-10T07:40:56.931Z,20.10
2017-08-10T07:43:24.388Z,20.10
2017-08-10T07:45:51.844Z,20.10
2017-08-10T07:48:19.676Z,20.00
2017-08-10T07:50:47.140Z,19.70
2017-08-10T07:53:14.599Z,19.50
2017-08-10T07:55:42.475Z,19.20
2017-08-10T07:58:09.975Z,19.20
2017-08-10T08:00:37.424Z,19.30
2017-08-10T08:03:04.880Z,19.20
2017-08-10T08:05:32.684Z,19.40
2017-08-10T08:08:00.143Z,19.40
2017-08-10T08:10:27.731Z,19.40
2017-08-10T08:12:55.205Z,19.40
2017-08-10T08:15:22.713Z,19.50
2017-08-10T08:17:50.176Z,19.60
2017-08-10T08:20:17.758Z,19.50
2017-08-10T08:22:45.220Z,19.50
2017-08-10T08:25:12.674Z,19.50
2017-08-10T08:27:40.147Z,19.60
2017-08-10T08:30:07.756Z,19.90
2017-08-10T08:32:35.608Z,20.80
2017-08-10T08:35:03.099Z,20.80
2017-08-10T08:37:37.856Z,21.30
2017-08-10T08:40:05.347Z,21.60
2017-08-10T08:42:32.799Z,21.60
2017-08-10T08:45:00.284Z,21.40
2017-08-10T08:47:28.137Z,21.30
2017-08-10T08:49:56.011Z,21.40
2017-08-10T08:52:23.872Z,21.80
2017-08-10T08:54:51.833Z,21.60
2017-08-10T08:57:19.703Z,21.80
2017-08-10T08:59:47.603Z,22.30
2017-08-10T09:04:49.477Z,22.20
2017-08-10T09:07:17.239Z,22.20
2017-08-10T09:09:44.883Z,21.90
2017-08-10T09:12:12.344Z,22.00
2017-08-10T09:14:40.162Z,22.50
2017-08-10T09:17:08.028Z,23.10
2017-08-10T09:19:36.170Z,23.30
2017-08-10T09:22:03.636Z,23.30
2017-08-10T09:24:31.219Z,23.30
2017-08-10T09:26:59.194Z,22.90
2017-08-10T09:29:27.053Z,23.10
2017-08-10T09:31:54.917Z,23.00
2017-08-10T09:34:22.390Z,23.00
2017-08-10T09:36:50.249Z,23.60
2017-08-10T09:39:18.100Z,23.10
2017-08-10T09:41:45.588Z,23.20
2017-08-10T09:44:13.058Z,22.70
2017-08-10T09:46:40.512Z,22.60
2017-08-10T09:49:08.015Z,22.50
2017-08-10T09:51:35.480Z,21.80
2017-08-10T09:54:02.932Z,21.40
2017-08-10T09:56:30.692Z,22.00
2017-08-10T09:58:58.143Z,22.10
2017-08-10T10:01:25.604Z,22.30
2017-08-10T10:03:53.258Z,22.20
2017-08-10T10:06:20.711Z,22.00
2017-08-10T10:08:48.171Z,22.20
2017-08-10T10:11:15.662Z,22.00
2017-08-10T10:13:43.116Z,22.10
2017-08-10T10:16:10.584Z,22.30
2017-08-10T10:18:38.216Z,22.50
2017-08-10T10:21:06.072Z,21.60
2017-08-10T10:23:33.928Z,21.50
2017-08-10T10:26:01.418Z,21.50
2017-08-10T10:28:28.884Z,21.80
2017-08-10T10:30:56.343Z,22.10
2017-08-10T10:33:23.800Z,22.40
2017-08-10T10:35:51.272Z,22.70
2017-08-10T10:38:19.065Z,23.20
2017-08-10T10:40:46.523Z,23.20
2017-08-10T10:43:13.979Z,22.60
2017-08-10T10:45:41.464Z,22.90
2017-08-10T10:48:08.923Z,23.20
2017-08-10T10:50:36.380Z,23.40
2017-08-10T10:53:03.868Z,24.00
2017-08-10T10:55:31.334Z,24.70
2017-08-10T10:57:58.782Z,24.40
2017-08-10T11:00:26.260Z,24.20
2017-08-10T11:02:54.264Z,24.10
2017-08-10T11:05:21.724Z,24.10
2017-08-10T11:07:49.300Z,24.30
2017-08-10T11:10:16.761Z,24.60
2017-08-10T11:12:44.214Z,25.10
2017-08-10T11:15:11.992Z,25.10
2017-08-10T11:17:39.452Z,24.70
2017-08-10T11:20:06.908Z,24.60
2017-08-10T11:22:34.404Z,24.40
2017-08-10T11:25:02.259Z,23.10
2017-08-10T11:27:30.115Z,23.50
2017-08-10T11:29:57.594Z,23.40
2017-08-10T11:32:25.055Z,23.50
2017-08-10T11:34:52.525Z,23.70
2017-08-10T11:37:20.008Z,23.50
2017-08-10T11:39:47.467Z,23.10
2017-08-10T11:42:14.940Z,23.10
2017-08-10T11:44:42.488Z,23.30
2017-08-10T11:47:10.012Z,23.20
2017-08-10T11:49:37.578Z,23.50
2017-08-10T11:52:05.094Z,23.40
2017-08-10T11:54:32.992Z,23.30
2017-08-10T11:57:00.444Z,23.30
2017-08-10T11:59:28.153Z,23.70
2017-08-10T12:01:55.612Z,23.80
2017-08-10T12:04:23.308Z,23.80
2017-08-10T12:06:51.056Z,24.00
2017-08-10T12:09:18.511Z,24.30
2017-08-10T12:11:46.360Z,30.60
2017-08-10T12:14:14.235Z,27.80
2017-08-10T12:16:42.112Z,25.90
2017-08-10T12:19:09.569Z,25.90
2017-08-10T12:21:37.026Z,25.10
2017-08-10T12:24:04.528Z,24.20
2017-08-10T12:26:31.992Z,23.70
2017-08-10T12:28:59.440Z,23.50
2017-08-10T12:31:27.221Z,23.10
2017-08-10T12:33:55.087Z,22.80
2017-08-10T12:36:22.545Z,22.80
2017-08-10T12:38:50.435Z,22.50
2017-08-10T12:41:17.892Z,22.50
2017-08-10T12:43:45.347Z,22.40
2017-08-10T12:46:12.855Z,22.20
2017-08-10T12:48:40.328Z,22.20
2017-08-10T12:51:07.787Z,22.20
2017-08-10T12:53:35.259Z,22.40
2017-08-10T12:56:03.112Z,22.60
2017-08-10T12:58:30.577Z,22.60
2017-08-10T13:00:58.160Z,22.70
2017-08-10T13:03:25.627Z,22.80
2017-08-10T13:05:53.488Z,22.60
2017-08-10T13:08:20.971Z,22.60
2017-08-10T13:10:48.432Z,22.50
2017-08-10T13:13:15.887Z,22.50
2017-08-10T13:15:43.364Z,22.60
2017-08-10T13:18:10.820Z,22.70
2017-08-10T13:20:38.275Z,22.90
2017-08-10T13:23:06.163Z,22.90
2017-08-10T13:25:33.625Z,22.90
2017-08-10T13:28:01.099Z,22.90
2017-08-10T13:30:28.905Z,23.10
2017-08-10T13:32:56.360Z,22.90
2017-08-10T13:35:23.826Z,23.00
2017-08-10T13:37:51.321Z,22.90
2017-08-10T13:40:18.799Z,23.00
2017-08-10T13:42:46.271Z,23.20
2017-08-10T13:45:13.952Z,23.60
2017-08-10T13:47:41.411Z,25.00
2017-08-10T13:50:08.861Z,24.50
2017-08-10T13:52:36.331Z,24.10
2017-08-10T13:55:03.791Z,23.50
2017-08-10T13:57:31.254Z,23.10
2017-08-10T13:59:58.732Z,23.10
2017-08-10T14:02:26.194Z,22.80
2017-08-10T14:04:53.651Z,22.60
2017-08-10T14:07:21.141Z,22.50
2017-08-10T14:09:48.911Z,22.50
2017-08-10T14:12:16.769Z,22.40
2017-08-10T14:14:44.387Z,22.40
2017-08-10T14:17:12.194Z,22.50
2017-08-10T14:19:39.651Z,22.50
2017-08-10T14:22:07.103Z,22.70
2017-08-10T14:24:34.592Z,22.90
2017-08-10T14:27:02.051Z,22.80
2017-08-10T14:29:29.524Z,22.60
2017-08-10T14:31:57.008Z,22.50
2017-08-10T14:34:24.468Z,22.60
2017-08-10T14:36:51.936Z,22.70
2017-08-10T14:39:19.415Z,23.20
2017-08-10T14:41:47.268Z,23.40
2017-08-10T14:44:15.124Z,23.50
2017-08-10T14:46:42.615Z,23.50
2017-08-10T14:49:10.078Z,23.70
2017-08-10T14:51:37.549Z,23.90
2017-08-10T14:54:05.249Z,24.00
2017-08-10T14:56:33.121Z,24.40
2017-08-10T14:59:00.589Z,24.50
2017-08-10T15:01:28.327Z,25.00
2017-08-10T15:03:55.791Z,25.40
2017-08-10T15:06:23.649Z,24.40
2017-08-10T15:08:51.125Z,24.40
2017-08-10T15:11:18.604Z,24.30
2017-08-10T15:13:46.116Z,24.40
2017-08-10T15:16:13.600Z,24.40
2017-08-10T15:18:41.064Z,24.20
2017-08-10T15:21:08.520Z,24.40
2017-08-10T15:23:35.974Z,24.80
2017-08-10T15:26:03.710Z,24.70
2017-08-10T15:28:31.564Z,24.20
2017-08-10T15:30:59.432Z,24.20
2017-08-10T15:33:26.915Z,24.20
2017-08-10T15:35:54.375Z,24.20
2017-08-10T15:38:21.842Z,24.10
2017-08-10T15:40:49.323Z,24.10
2017-08-10T15:43:16.782Z,24.00
2017-08-10T15:45:44.242Z,24.10
2017-08-10T15:48:11.716Z,23.90
2017-08-10T15:50:39.584Z,24.00
2017-08-10T15:53:07.455Z,23.80
2017-08-10T15:55:34.927Z,23.80
2017-08-10T15:58:02.383Z,23.80
2017-08-10T16:00:29.839Z,23.90
2017-08-10T16:02:57.328Z,23.60
2017-08-10T16:05:24.804Z,23.40
2017-08-10T16:07:52.518Z,23.20
2017-08-10T16:10:19.997Z,23.10
2017-08-10T16:12:47.455Z,23.10
2017-08-10T16:15:14.915Z,23.10
2017-08-10T16:17:42.422Z,22.90
2017-08-10T16:20:10.277Z,22.60
2017-08-10T16:22:37.728Z,22.60
2017-08-10T16:25:05.895Z,22.60
2017-08-10T16:27:33.356Z,22.60
2017-08-10T16:30:00.807Z,22.40
2017-08-10T16:32:28.291Z,22.30
2017-08-10T16:34:55.759Z,22.40
2017-08-10T16:37:23.221Z,22.30
2017-08-10T16:39:50.683Z,22.30
2017-08-10T16:42:18.143Z,22.30
2017-08-10T16:44:45.663Z,22.30
2017-08-10T16:47:13.511Z,22.30
2017-08-10T16:49:41.363Z,22.30
2017-08-10T16:52:08.851Z,22.30
2017-08-10T16:54:36.315Z,22.30
2017-08-10T16:57:03.791Z,22.20
2017-08-10T16:59:31.510Z,22.20
2017-08-10T17:01:59.364Z,22.20
2017-08-10T17:04:27.224Z,22.30
2017-08-10T17:06:54.719Z,22.30
2017-08-10T17:09:22.189Z,22.10
2017-08-10T17:11:49.647Z,21.90
2017-08-10T17:14:17.451Z,21.90
2017-08-10T17:16:44.919Z,21.90
2017-08-10T17:19:12.371Z,22.10
2017-08-10T17:21:40.432Z,22.30
2017-08-10T17:24:07.887Z,22.30
2017-08-10T17:26:35.343Z,22.10
2017-08-10T17:29:02.819Z,22.10
2017-08-10T17:31:30.672Z,22.20
2017-08-10T17:33:58.132Z,22.20
2017-08-10T17:36:26.020Z,22.20
2017-08-10T17:38:53.485Z,22.20
2017-08-10T17:41:20.956Z,22.10
2017-08-10T17:43:48.411Z,22.20
2017-08-10T17:46:15.872Z,22.20
2017-08-10T17:48:43.349Z,22.20
2017-08-10T17:51:10.812Z,22.20
2017-08-10T17:53:38.278Z,22.10
2017-08-10T17:56:06.155Z,22.00
2017-08-10T17:58:34.013Z,21.90
2017-08-10T18:01:01.866Z,21.80
2017-08-10T18:03:29.339Z,21.80
2017-08-10T18:05:57.226Z,21.60
2017-08-10T18:08:24.676Z,21.60
2017-08-10T18:10:52.155Z,21.40
2017-08-10T18:13:19.619Z,21.50
2017-08-10T18:15:47.165Z,21.50
2017-08-10T18:18:15.184Z,21.40
2017-08-10T18:20:42.640Z,21.40
2017-08-10T18:23:10.101Z,21.30
2017-08-10T18:25:38.009Z,21.20
2017-08-10T18:28:05.478Z,21.20
2017-08-10T18:30:32.948Z,21.10
2017-08-10T18:33:00.675Z,21.00
2017-08-10T18:35:28.137Z,21.00
2017-08-10T18:37:55.599Z,21.10
2017-08-10T18:40:23.079Z,21.00
2017-08-10T18:42:50.547Z,20.90
2017-08-10T18:45:18.023Z,20.70
2017-08-10T18:47:45.910Z,20.80
2017-08-10T18:50:13.382Z,20.80
2017-08-10T18:52:40.846Z,20.80
2017-08-10T18:55:08.303Z,20.70
2017-08-10T18:57:35.771Z,20.50
2017-08-10T19:00:03.248Z,20.60
2017-08-10T19:02:30.707Z,20.40
2017-08-10T19:04:58.567Z,20.30
2017-08-10T19:07:26.145Z,20.30
2017-08-10T19:09:53.617Z,20.30
2017-08-10T19:12:21.080Z,20.30
2017-08-10T19:14:48.535Z,20.20
2017-08-10T19:17:16.012Z,20.20
2017-08-10T19:19:43.500Z,20.10
2017-08-10T19:22:11.031Z,20.00
2017-08-10T19:24:38.515Z,20.00
2017-08-10T19:27:05.991Z,19.90
2017-08-10T19:29:33.460Z,19.90
2017-08-10T19:32:00.939Z,19.90
2017-08-10T19:34:28.420Z,19.90
2017-08-10T19:36:55.884Z,19.90
2017-08-10T19:39:23.347Z,19.90
2017-08-10T19:41:51.415Z,19.80
2017-08-10T19:44:18.883Z,19.80
2017-08-10T19:46:46.764Z,19.60
2017-08-10T19:49:14.631Z,19.50
2017-08-10T19:51:42.143Z,19.50
2017-08-10T19:54:09.607Z,19.50
2017-08-10T19:56:37.364Z,19.60
2017-08-10T19:59:04.815Z,19.50
2017-08-10T20:01:32.276Z,19.60
2017-08-10T20:03:59.759Z,19.50
2017-08-10T20:06:27.223Z,19.40
2017-08-10T20:08:55.102Z,19.30
2017-08-10T20:13:56.838Z,19.30
2017-08-10T20:16:24.314Z,19.30
2017-08-10T20:18:51.799Z,19.10
2017-08-10T20:21:19.263Z,19.10
2017-08-10T20:23:46.741Z,19.10
2017-08-10T20:26:14.233Z,19.00
2017-08-10T20:28:41.689Z,19.00
2017-08-10T20:31:09.160Z,19.00
2017-08-10T20:33:36.888Z,19.00
2017-08-10T20:36:04.345Z,19.10
2017-08-10T20:38:31.815Z,19.00
2017-08-10T20:40:59.681Z,18.90
2017-08-10T20:43:27.540Z,18.80
2017-08-10T20:45:55.015Z,18.80
2017-08-10T20:48:22.545Z,18.90
2017-08-10T20:50:50.414Z,18.90
2017-08-10T20:53:17.884Z,18.90
2017-08-10T20:55:45.352Z,18.80
2017-08-10T20:58:12.862Z,18.80
2017-08-10T21:00:40.391Z,18.80
2017-08-10T21:03:07.855Z,18.70
2017-08-10T21:05:35.320Z,18.70
2017-08-10T21:08:02.847Z,18.70
2017-08-10T21:10:30.324Z,18.70
2017-08-10T21:12:57.917Z,18.70
2017-08-10T21:15:25.409Z,18.80
2017-08-10T21:17:52.883Z,18.70
2017-08-10T21:20:20.345Z,18.80
2017-08-10T21:22:47.828Z,18.80
2017-08-10T21:25:15.306Z,18.60
2017-08-10T21:27:42.778Z,18.70
2017-08-10T21:30:10.276Z,18.70
2017-08-10T21:32:37.731Z,18.40
2017-08-10T21:35:05.213Z,18.50
2017-08-10T21:37:32.999Z,18.50
2017-08-10T21:40:00.459Z,18.50
2017-08-10T21:42:27.931Z,18.20
2017-08-10T21:44:55.422Z,18.30
2017-08-10T21:47:22.888Z,18.40
2017-08-10T21:49:50.373Z,18.40
2017-08-10T21:52:17.855Z,18.30
2017-08-10T21:54:45.374Z,18.20
2017-08-10T21:57:12.970Z,18.30
2017-08-10T21:59:40.432Z,18.30
2017-08-10T22:02:07.948Z,18.30
2017-08-10T22:04:35.408Z,18.20
2017-08-10T22:07:02.875Z,18.20
2017-08-10T22:09:30.698Z,18.30
2017-08-10T22:11:58.166Z,18.20
2017-08-10T22:14:25.632Z,18.20
2017-08-10T22:16:53.124Z,18.20
2017-08-10T22:19:20.591Z,18.10
2017-08-10T22:21:48.056Z,18.10
2017-08-10T22:24:15.606Z,18.10
2017-08-10T22:26:43.140Z,18.10
2017-08-10T22:29:11.467Z,18.00
2017-08-10T22:31:38.985Z,18.00
2017-08-10T22:34:06.456Z,17.90
2017-08-10T22:36:33.916Z,17.90
2017-08-10T22:39:01.599Z,17.90
2017-08-10T22:41:29.059Z,17.90
2017-08-10T22:43:56.516Z,17.80
2017-08-10T22:46:24.268Z,17.80
2017-08-10T22:48:51.731Z,17.80
2017-08-10T22:51:19.587Z,17.90
2017-08-10T22:53:47.079Z,17.90
2017-08-10T22:56:14.559Z,18.00
2017-08-10T22:58:42.020Z,18.00
2017-08-10T23:01:09.528Z,17.80
2017-08-10T23:03:37.391Z,17.80
2017-08-10T23:06:04.847Z,17.80
2017-08-10T23:08:32.336Z,17.80
2017-08-10T23:10:59.799Z,17.70
2017-08-10T23:13:27.260Z,17.70
2017-08-10T23:15:54.755Z,17.70
2017-08-10T23:18:22.216Z,17.80
2017-08-10T23:20:49.671Z,17.60
2017-08-10T23:23:17.153Z,17.60
2017-08-10T23:25:44.613Z,17.80
2017-08-10T23:28:12.070Z,17.80
2017-08-10T23:30:39.652Z,17.80
2017-08-10T23:33:07.107Z,17.80
2017-08-10T23:35:34.570Z,17.80
2017-08-10T23:38:02.064Z,17.80
2017-08-10T23:40:29.915Z,17.80
2017-08-10T23:42:57.383Z,17.80
2017-08-10T23:45:25.252Z,17.60
2017-08-10T23:47:53.125Z,17.60
2017-08-10T23:50:20.575Z,17.60
2017-08-10T23:52:48.071Z,17.50
2017-08-10T23:55:15.535Z,17.20
2017-08-10T23:57:42.991Z,16.80
